createdAt,value
2023-03-22T00:02:17.285Z,9.30
2023-03-22T00:04:46.571Z,9.30
2023-03-22T00:07:16.025Z,9.30
2023-03-22T00:09:45.643Z,9.30
2023-03-22T00:12:15.466Z,9.30
2023-03-22T00:14:45.453Z,9.30
2023-03-22T00:17:14.814Z,9.30
2023-03-22T00:19:44.906Z,9.30
2023-03-22T00:22:14.625Z,9.40
2023-03-22T00:24:44.103Z,9.40
2023-03-22T00:27:14.284Z,9.40
2023-03-22T00:29:43.699Z,9.40
2023-03-22T00:32:13.078Z,9.40
2023-03-22T00:34:42.395Z,9.40
2023-03-22T00:37:11.775Z,9.40
2023-03-22T00:39:41.089Z,9.40
2023-03-22T00:42:10.473Z,9.40
2023-03-22T00:44:39.991Z,9.40
2023-03-22T00:47:09.427Z,9.40
2023-03-22T00:49:38.800Z,9.50
2023-03-22T00:52:08.239Z,9.50
2023-03-22T00:54:37.742Z,9.50
2023-03-22T00:57:07.752Z,9.50
2023-03-22T00:59:38.607Z,9.50
2023-03-22T01:02:08.226Z,9.50
2023-03-22T01:04:37.673Z,9.50
2023-03-22T01:07:07.904Z,9.50
2023-03-22T01:09:37.934Z,9.50
2023-03-22T01:12:07.444Z,9.50
2023-03-22T01:14:37.044Z,9.50
2023-03-22T01:17:07.406Z,9.50
2023-03-22T01:19:38.021Z,9.40
2023-03-22T01:22:08.685Z,9.40
2023-03-22T01:24:38.434Z,9.40
2023-03-22T01:27:07.915Z,9.40
2023-03-22T01:29:37.287Z,9.40
2023-03-22T01:32:06.930Z,9.40
2023-03-22T01:34:36.373Z,9.40
2023-03-22T01:37:06.021Z,9.30
2023-03-22T01:39:35.945Z,9.30
2023-03-22T01:42:06.982Z,9.30
2023-03-22T01:44:39.159Z,9.30
2023-03-22T01:47:11.543Z,9.20
2023-03-22T01:49:41.595Z,9.20
2023-03-22T01:52:14.464Z,9.20
2023-03-22T01:54:53.461Z,9.20
2023-03-22T01:57:25.488Z,9.10
2023-03-22T01:59:55.485Z,9.10
2023-03-22T02:02:30.780Z,9.10
2023-03-22T02:05:04.035Z,9.10
2023-03-22T02:07:33.607Z,9.10
2023-03-22T02:10:04.991Z,9.10
2023-03-22T02:12:53.880Z,9.10
2023-03-22T02:15:50.045Z,9.10
2023-03-22T02:18:39.070Z,9.10
2023-03-22T02:21:14.415Z,9.10
2023-03-22T02:24:02.050Z,9.10
2023-03-22T02:26:47.157Z,9.10
2023-03-22T02:29:34.816Z,9.10
2023-03-22T02:32:26.848Z,9.10
2023-03-22T02:35:34.117Z,9.10
2023-03-22T02:38:21.321Z,9.10
2023-03-22T02:41:06.378Z,9.10
2023-03-22T02:44:00.034Z,9.00
2023-03-22T02:46:38.144Z,9.10
2023-03-22T02:49:16.557Z,9.10
2023-03-22T02:51:51.765Z,9.10
2023-03-22T02:54:24.220Z,9.10
2023-03-22T02:57:14.592Z,9.00
2023-03-22T02:59:43.309Z,9.00
2023-03-22T03:02:17.059Z,9.00
2023-03-22T03:04:49.479Z,9.00
2023-03-22T03:07:21.862Z,9.00
2023-03-22T03:09:52.634Z,8.90
2023-03-22T03:12:25.167Z,9.00
2023-03-22T03:14:56.656Z,8.90
2023-03-22T03:17:51.068Z,8.90
2023-03-22T03:21:00.289Z,8.90
2023-03-22T03:23:54.062Z,8.80
2023-03-22T03:26:41.857Z,8.80
2023-03-22T03:29:37.096Z,8.80
2023-03-22T03:32:09.606Z,8.80
2023-03-22T03:35:15.416Z,8.80
2023-03-22T03:37:50.779Z,8.80
2023-03-22T03:40:23.176Z,8.80
2023-03-22T03:42:55.876Z,8.80
2023-03-22T03:45:26.419Z,8.80
2023-03-22T03:48:02.022Z,8.80
2023-03-22T03:50:31.877Z,8.80
2023-03-22T03:53:01.666Z,8.80
2023-03-22T03:55:31.600Z,8.80
2023-03-22T03:58:01.122Z,8.80
2023-03-22T04:00:31.101Z,8.80
2023-03-22T04:03:02.211Z,8.90
2023-03-22T04:05:34.039Z,8.80
2023-03-22T04:08:03.480Z,8.90
2023-03-22T04:10:34.305Z,8.90
2023-03-22T04:13:03.725Z,8.90
2023-03-22T04:15:33.808Z,8.90
2023-03-22T04:18:05.054Z,8.90
2023-03-22T04:20:34.475Z,8.90
2023-03-22T04:23:03.904Z,8.90
2023-03-22T04:25:33.937Z,8.90
2023-03-22T04:28:09.606Z,8.90
2023-03-22T04:30:39.701Z,8.90
2023-03-22T04:33:15.180Z,8.90
2023-03-22T04:36:04.563Z,9.00
2023-03-22T04:38:35.428Z,8.90
2023-03-22T04:41:05.456Z,8.90
2023-03-22T04:43:38.245Z,9.00
2023-03-22T04:46:11.877Z,9.00
2023-03-22T04:48:43.517Z,8.90
2023-03-22T04:51:13.312Z,8.90
2023-03-22T04:53:44.977Z,8.90
2023-03-22T04:56:16.236Z,8.90
2023-03-22T04:58:47.018Z,8.90
2023-03-22T05:01:16.560Z,9.00
2023-03-22T05:03:47.419Z,8.90
2023-03-22T05:06:18.623Z,8.90
2023-03-22T05:08:49.713Z,9.00
2023-03-22T05:11:20.406Z,9.00
2023-03-22T05:13:51.441Z,8.90
2023-03-22T05:16:21.107Z,8.90
2023-03-22T05:18:54.452Z,9.00
2023-03-22T05:21:28.704Z,9.00
2023-03-22T05:24:00.340Z,9.00
2023-03-22T05:26:29.950Z,9.00
2023-03-22T05:28:59.864Z,9.00
2023-03-22T05:31:32.829Z,8.90
2023-03-22T05:34:03.900Z,8.90
2023-03-22T05:36:36.566Z,8.90
2023-03-22T05:39:25.331Z,8.90
2023-03-22T05:41:55.110Z,8.90
2023-03-22T05:44:24.624Z,8.90
2023-03-22T05:46:55.793Z,8.90
2023-03-22T05:49:27.147Z,8.90
2023-03-22T05:51:56.546Z,8.90
2023-03-22T05:54:27.638Z,8.90
2023-03-22T05:56:57.076Z,9.00
2023-03-22T05:59:26.523Z,8.90
2023-03-22T06:01:55.993Z,9.00
2023-03-22T06:04:25.521Z,8.90
2023-03-22T06:06:59.726Z,9.00
2023-03-22T06:09:30.970Z,9.00
2023-03-22T06:12:01.773Z,9.00
2023-03-22T06:14:31.286Z,9.00
2023-03-22T06:17:02.555Z,9.00
2023-03-22T06:19:32.303Z,9.00
2023-03-22T06:22:03.392Z,9.10
2023-03-22T06:24:34.171Z,9.10
2023-03-22T06:27:03.922Z,9.10
2023-03-22T06:29:33.879Z,9.10
2023-03-22T06:32:04.698Z,9.10
2023-03-22T06:34:33.836Z,9.20
2023-03-22T06:37:03.331Z,9.20
2023-03-22T06:39:37.141Z,9.20
2023-03-22T06:42:07.244Z,9.20
2023-03-22T06:44:36.668Z,9.20
2023-03-22T06:47:11.588Z,9.30
2023-03-22T06:49:48.751Z,9.30
2023-03-22T06:52:20.523Z,9.40
2023-03-22T06:54:50.088Z,9.40
2023-03-22T06:57:19.579Z,9.50
2023-03-22T06:59:48.958Z,9.50
2023-03-22T07:02:18.343Z,9.50
2023-03-22T07:04:49.401Z,9.60
2023-03-22T07:07:18.878Z,9.60
2023-03-22T07:09:48.431Z,9.60
2023-03-22T07:12:18.743Z,9.70
2023-03-22T07:14:48.990Z,9.80
2023-03-22T07:17:22.734Z,10.10
2023-03-22T07:19:52.062Z,10.40
2023-03-22T07:22:22.477Z,10.70
2023-03-22T07:24:58.328Z,10.70
2023-03-22T07:27:25.872Z,10.70
2023-03-22T07:29:55.393Z,10.70
2023-03-22T07:32:24.963Z,10.70
2023-03-22T07:35:02.274Z,10.60
2023-03-22T07:37:31.709Z,10.70
2023-03-22T07:40:01.492Z,10.70
2023-03-22T07:42:32.260Z,10.70
2023-03-22T07:45:21.262Z,10.80
2023-03-22T07:47:58.410Z,10.90
2023-03-22T07:50:36.020Z,11.00
2023-03-22T07:53:06.812Z,11.10
2023-03-22T07:55:36.996Z,11.20
2023-03-22T07:58:07.148Z,11.20
2023-03-22T08:00:37.048Z,11.20
2023-03-22T08:03:08.455Z,11.30
2023-03-22T08:05:59.012Z,11.40
2023-03-22T08:08:28.521Z,11.40
2023-03-22T08:10:57.975Z,11.60
2023-03-22T08:13:27.556Z,11.60
2023-03-22T08:15:57.345Z,11.70
2023-03-22T08:18:26.952Z,11.90
2023-03-22T08:20:58.027Z,12.00
2023-03-22T08:23:40.873Z,12.10
2023-03-22T08:26:18.950Z,12.10
2023-03-22T08:28:48.486Z,12.10
2023-03-22T08:31:18.599Z,12.20
2023-03-22T08:33:47.998Z,12.20
2023-03-22T08:36:20.403Z,12.20
2023-03-22T08:38:56.372Z,12.10
2023-03-22T08:41:31.216Z,12.10
2023-03-22T08:44:01.618Z,12.10
2023-03-22T08:46:31.539Z,12.10
2023-03-22T08:49:02.446Z,12.10
2023-03-22T08:51:40.237Z,12.10
2023-03-22T08:54:14.386Z,12.10
2023-03-22T08:56:48.137Z,12.10
2023-03-22T08:59:19.330Z,12.10
2023-03-22T09:01:50.475Z,12.10
2023-03-22T09:04:19.916Z,12.10
2023-03-22T09:06:49.526Z,12.10
2023-03-22T09:09:19.215Z,12.20
2023-03-22T09:11:50.489Z,12.30
2023-03-22T09:14:19.996Z,12.30
2023-03-22T09:16:49.883Z,12.40
2023-03-22T09:19:19.992Z,12.50
2023-03-22T09:21:50.123Z,12.50
2023-03-22T09:24:21.626Z,12.60
2023-03-22T09:26:52.783Z,12.60
2023-03-22T09:29:22.272Z,12.60
2023-03-22T09:31:51.736Z,12.60
2023-03-22T09:34:25.845Z,12.70
2023-03-22T09:36:57.435Z,12.80
2023-03-22T09:39:28.795Z,12.90
2023-03-22T09:42:02.394Z,12.90
2023-03-22T09:44:35.054Z,12.90
2023-03-22T09:47:07.313Z,12.90
2023-03-22T09:49:52.589Z,13.00
2023-03-22T09:52:16.769Z,13.00
2023-03-22T09:54:48.009Z,13.00
2023-03-22T09:57:35.355Z,13.00
2023-03-22T10:00:09.426Z,13.00
2023-03-22T10:03:08.923Z,13.00
2023-03-22T10:06:04.125Z,13.00
2023-03-22T10:08:45.839Z,13.00
2023-03-22T10:11:38.923Z,13.00
2023-03-22T10:14:23.459Z,13.00
2023-03-22T10:16:56.540Z,13.10
2023-03-22T10:19:29.042Z,13.10
2023-03-22T10:22:02.180Z,13.10
2023-03-22T10:24:34.737Z,13.10
2023-03-22T10:27:04.599Z,13.10
2023-03-22T10:29:37.049Z,13.20
2023-03-22T10:32:15.654Z,13.20
2023-03-22T10:34:46.559Z,13.20
2023-03-22T10:37:24.861Z,13.20
2023-03-22T10:39:57.017Z,13.20
2023-03-22T10:42:29.683Z,13.20
2023-03-22T10:45:10.950Z,13.20
2023-03-22T10:47:43.397Z,13.20
2023-03-22T10:50:28.692Z,13.20
2023-03-22T10:53:09.548Z,13.30
2023-03-22T10:55:44.170Z,13.30
2023-03-22T10:58:19.745Z,13.30
2023-03-22T11:00:52.296Z,13.30
2023-03-22T11:03:30.954Z,13.30
2023-03-22T11:06:02.970Z,13.30
2023-03-22T11:08:41.078Z,13.40
2023-03-22T11:11:27.957Z,13.40
2023-03-22T11:14:12.314Z,13.40
2023-03-22T11:16:56.465Z,13.40
2023-03-22T11:19:28.485Z,13.40
2023-03-22T11:21:59.793Z,13.40
2023-03-22T11:24:34.623Z,13.40
2023-03-22T11:27:10.141Z,13.40
2023-03-22T11:29:45.350Z,13.50
2023-03-22T11:32:38.443Z,13.50
2023-03-22T11:35:20.493Z,13.50
2023-03-22T11:37:55.467Z,13.50
2023-03-22T11:40:27.441Z,13.60
2023-03-22T11:42:59.310Z,13.70
2023-03-22T11:45:31.734Z,13.70
2023-03-22T11:48:09.771Z,13.80
2023-03-22T11:50:41.775Z,13.80
2023-03-22T11:53:16.826Z,13.80
2023-03-22T11:55:49.001Z,13.80
2023-03-22T11:58:24.307Z,13.80
2023-03-22T12:00:56.444Z,13.80
2023-03-22T12:03:29.031Z,13.80
2023-03-22T12:06:01.554Z,13.90
2023-03-22T12:08:51.970Z,13.90
2023-03-22T12:11:37.384Z,13.80
2023-03-22T12:14:18.901Z,13.80
2023-03-22T12:16:54.015Z,13.80
2023-03-22T12:19:38.212Z,13.90
2023-03-22T12:22:16.620Z,13.90
2023-03-22T12:24:46.739Z,13.90
2023-03-22T12:27:22.257Z,13.90
2023-03-22T12:30:15.854Z,13.90
2023-03-22T12:32:48.357Z,14.00
2023-03-22T12:35:20.782Z,14.10
2023-03-22T12:37:53.358Z,14.10
2023-03-22T12:40:25.807Z,14.10
2023-03-22T12:43:19.369Z,14.10
2023-03-22T12:45:53.235Z,14.10
2023-03-22T12:48:28.254Z,14.10
2023-03-22T12:51:03.645Z,14.10
2023-03-22T12:53:43.751Z,14.10
2023-03-22T12:56:19.246Z,14.10
2023-03-22T12:58:51.816Z,14.10
2023-03-22T13:01:39.696Z,14.10
2023-03-22T13:04:31.599Z,14.10
2023-03-22T13:07:13.035Z,14.10
2023-03-22T13:09:44.960Z,14.10
2023-03-22T13:12:20.345Z,14.10
2023-03-22T13:15:04.550Z,14.20
2023-03-22T13:17:36.735Z,14.20
2023-03-22T13:20:12.096Z,14.20
2023-03-22T13:22:44.593Z,14.10
2023-03-22T13:25:19.701Z,14.10
2023-03-22T13:27:55.236Z,14.10
2023-03-22T13:30:28.208Z,14.10
2023-03-22T13:33:09.818Z,14.10
2023-03-22T13:35:48.695Z,14.10
2023-03-22T13:38:30.271Z,14.10
2023-03-22T13:41:08.851Z,14.10
2023-03-22T13:43:41.287Z,14.10
2023-03-22T13:46:16.612Z,14.10
2023-03-22T13:48:52.310Z,14.10
2023-03-22T13:51:29.525Z,14.10
2023-03-22T13:54:05.350Z,14.10
2023-03-22T13:56:47.691Z,14.10
2023-03-22T13:59:33.851Z,14.10
2023-03-22T14:02:06.487Z,14.10
2023-03-22T14:04:48.092Z,14.10
2023-03-22T14:07:45.628Z,14.20
2023-03-22T14:10:23.523Z,14.10
2023-03-22T14:13:04.785Z,14.20
2023-03-22T14:15:37.250Z,14.20
2023-03-22T14:18:27.982Z,14.10
2023-03-22T14:21:00.376Z,14.20
